Main page
METAR-TAF:

METAR-TAF

Airports :

Boscobel Airport

Boscobel, Wisconsin, United States

latitude: 43-09-22N, longitude: 090-40-39W, elevation: 672 ft

Current weather observation

The report was made 10 minutes ago, at 15:25 UTC
Wind 3 mph from variable directions
Temperature 70°F
Humidity 88%
Pressure 29.84 in. Hg
Visibility: 1 miles
Few clouds at a height of 500 ft
Scattered clouds at a height of 1300 ft
Overcast at a height of 1800 ft
heavy rain, mist

METAR: KOVS 281525Z AUTO VRB03KT 1SM +RA BR FEW005 SCT013 OVC018 21/19 A2984 RMK AO2 P0016 T02060194

Time: 10:35 (15:35 UTC)


TAF: missing

Weather observations and forecasts of more than 4000 airports (METAR and TAF reports).

The available stations are represented by yellow and red dots on the map.

Hover mouse over dot to see the name of the station.

Then click to see weather observations and forecasts.

To change the map : click on the green buttons with a black cross to zoom in, on the green button with a dash to zoom out, or on the green arrows for adjacent maps.


METAR-TAF: